sensor_id;sensor_type;location;lat;lon;timestamp;pressure;altitude;pressure_sealevel;temperature;humidity
68141;BME280;54941;52.220;104.306;2023-03-16T00:00:00;97562.00;;;-12.02;86.91
68141;BME280;54941;52.220;104.306;2023-03-16T00:02:26;97559.78;;;-11.82;86.34
68141;BME280;54941;52.220;104.306;2023-03-16T00:04:54;97565.50;;;-11.78;85.93
68141;BME280;54941;52.220;104.306;2023-03-16T00:07:21;97563.84;;;-11.78;85.77
68141;BME280;54941;52.220;104.306;2023-03-16T00:09:47;97561.41;;;-11.79;85.11
68141;BME280;54941;52.220;104.306;2023-03-16T00:12:16;97567.53;;;-11.62;85.21
68141;BME280;54941;52.220;104.306;2023-03-16T00:14:44;97569.91;;;-11.57;84.49
68141;BME280;54941;52.220;104.306;2023-03-16T00:17:13;97559.66;;;-11.47;83.64
68141;BME280;54941;52.220;104.306;2023-03-16T00:19:40;97565.19;;;-11.37;83.36
68141;BME280;54941;52.220;104.306;2023-03-16T00:22:07;97564.88;;;-11.26;82.43
68141;BME280;54941;52.220;104.306;2023-03-16T00:24:34;97562.50;;;-11.29;82.17
68141;BME280;54941;52.220;104.306;2023-03-16T00:27:00;97559.78;;;-11.22;81.59
68141;BME280;54941;52.220;104.306;2023-03-16T00:29:26;97558.72;;;-11.13;81.68
68141;BME280;54941;52.220;104.306;2023-03-16T00:31:53;97561.72;;;-10.74;80.01
68141;BME280;54941;52.220;104.306;2023-03-16T00:34:19;97567.97;;;-10.89;79.81
68141;BME280;54941;52.220;104.306;2023-03-16T00:36:46;97574.38;;;-10.82;79.68
68141;BME280;54941;52.220;104.306;2023-03-16T00:39:13;97570.38;;;-10.60;79.11
68141;BME280;54941;52.220;104.306;2023-03-16T00:41:40;97556.69;;;-10.73;78.99
68141;BME280;54941;52.220;104.306;2023-03-16T00:44:06;97549.47;;;-10.54;79.11
68141;BME280;54941;52.220;104.306;2023-03-16T00:46:33;97551.25;;;-10.31;78.00
68141;BME280;54941;52.220;104.306;2023-03-16T00:48:59;97555.81;;;-10.19;77.94
68141;BME280;54941;52.220;104.306;2023-03-16T00:51:25;97547.00;;;-10.05;77.38
68141;BME280;54941;52.220;104.306;2023-03-16T00:53:52;97550.78;;;-9.22;75.30
68141;BME280;54941;52.220;104.306;2023-03-16T00:56:20;97544.03;;;-6.24;66.88
68141;BME280;54941;52.220;104.306;2023-03-16T00:58:46;97554.94;;;-5.41;60.00
68141;BME280;54941;52.220;104.306;2023-03-16T01:01:14;97557.63;;;-4.19;56.50
68141;BME280;54941;52.220;104.306;2023-03-16T01:03:41;97555.53;;;-3.97;55.68
68141;BME280;54941;52.220;104.306;2023-03-16T01:06:09;97550.53;;;-3.68;52.16
68141;BME280;54941;52.220;104.306;2023-03-16T01:08:37;97545.94;;;-3.05;51.89
68141;BME280;54941;52.220;104.306;2023-03-16T01:11:04;97554.69;;;-3.53;49.36
68141;BME280;54941;52.220;104.306;2023-03-16T01:13:32;97545.16;;;-3.62;50.97
68141;BME280;54941;52.220;104.306;2023-03-16T01:15:59;97540.84;;;-3.46;50.24
68141;BME280;54941;52.220;104.306;2023-03-16T01:18:26;97541.72;;;-2.64;46.80
68141;BME280;54941;52.220;104.306;2023-03-16T01:20:52;97529.31;;;-3.22;47.60
68141;BME280;54941;52.220;104.306;2023-03-16T01:23:19;97526.59;;;-3.47;48.62
68141;BME280;54941;52.220;104.306;2023-03-16T01:25:45;97524.00;;;-3.60;49.80
68141;BME280;54941;52.220;104.306;2023-03-16T01:28:12;97534.53;;;-2.43;46.51
68141;BME280;54941;52.220;104.306;2023-03-16T01:30:42;97525.72;;;-2.50;45.28
68141;BME280;54941;52.220;104.306;2023-03-16T01:33:08;97528.28;;;-3.05;45.56
68141;BME280;54941;52.220;104.306;2023-03-16T01:35:35;97522.34;;;-2.90;46.26
68141;BME280;54941;52.220;104.306;2023-03-16T01:38:01;97521.81;;;-2.15;43.73
68141;BME280;54941;52.220;104.306;2023-03-16T01:40:28;97532.97;;;-1.41;43.11
68141;BME280;54941;52.220;104.306;2023-03-16T01:43:00;97520.81;;;-2.92;44.60
68141;BME280;54941;52.220;104.306;2023-03-16T01:48:40;97507.63;;;-2.30;44.34
68141;BME280;54941;52.220;104.306;2023-03-16T01:51:10;97515.00;;;-2.27;45.03
68141;BME280;54941;52.220;104.306;2023-03-16T01:53:40;97513.09;;;-2.77;44.67
68141;BME280;54941;52.220;104.306;2023-03-16T01:56:10;97510.03;;;-1.02;42.29
68141;BME280;54941;52.220;104.306;2023-03-16T01:58:41;97512.06;;;-2.21;43.59
68141;BME280;54941;52.220;104.306;2023-03-16T02:01:09;97506.06;;;-2.72;43.64
68141;BME280;54941;52.220;104.306;2023-03-16T02:03:38;97510.16;;;-1.04;41.90
68141;BME280;54941;52.220;104.306;2023-03-16T02:06:08;97503.66;;;-1.82;42.74
68141;BME280;54941;52.220;104.306;2023-03-16T02:08:36;97519.00;;;-1.98;43.50
68141;BME280;54941;52.220;104.306;2023-03-16T02:11:05;97494.16;;;-2.04;43.00
68141;BME280;54941;52.220;104.306;2023-03-16T02:13:38;97484.88;;;-0.56;40.39
68141;BME280;54941;52.220;104.306;2023-03-16T02:16:06;97489.31;;;-0.01;39.29
68141;BME280;54941;52.220;104.306;2023-03-16T02:18:34;97488.13;;;0.71;38.00
68141;BME280;54941;52.220;104.306;2023-03-16T02:21:08;97481.44;;;0.37;38.60
68141;BME280;54941;52.220;104.306;2023-03-16T02:23:37;97483.50;;;0.76;37.54
68141;BME280;54941;52.220;104.306;2023-03-16T02:26:08;97465.50;;;0.90;36.16
68141;BME280;54941;52.220;104.306;2023-03-16T02:28:43;97474.41;;;0.40;37.85
68141;BME280;54941;52.220;104.306;2023-03-16T02:31:12;97467.59;;;0.41;37.42
68141;BME280;54941;52.220;104.306;2023-03-16T02:33:39;97494.31;;;0.34;38.61
68141;BME280;54941;52.220;104.306;2023-03-16T02:36:07;97483.09;;;1.25;36.44
68141;BME280;54941;52.220;104.306;2023-03-16T02:38:34;97472.09;;;1.36;36.68
68141;BME280;54941;52.220;104.306;2023-03-16T02:41:08;97470.06;;;1.08;36.62
68141;BME280;54941;52.220;104.306;2023-03-16T02:43:37;97456.03;;;0.81;37.40
68141;BME280;54941;52.220;104.306;2023-03-16T02:46:05;97471.44;;;1.12;36.66
68141;BME280;54941;52.220;104.306;2023-03-16T02:48:38;97463.72;;;1.77;36.55
68141;BME280;54941;52.220;104.306;2023-03-16T02:51:06;97449.72;;;3.13;34.58
68141;BME280;54941;52.220;104.306;2023-03-16T02:53:33;97451.50;;;2.12;34.80
68141;BME280;54941;52.220;104.306;2023-03-16T02:55:59;97454.00;;;2.63;35.25
68141;BME280;54941;52.220;104.306;2023-03-16T02:58:26;97433.66;;;2.03;35.93
68141;BME280;54941;52.220;104.306;2023-03-16T03:00:52;97459.88;;;2.54;35.04
68141;BME280;54941;52.220;104.306;2023-03-16T03:03:19;97444.31;;;2.97;34.21
68141;BME280;54941;52.220;104.306;2023-03-16T03:05:49;97451.47;;;3.22;33.43
68141;BME280;54941;52.220;104.306;2023-03-16T03:08:15;97445.53;;;2.23;34.91
68141;BME280;54941;52.220;104.306;2023-03-16T03:10:42;97446.59;;;2.20;35.74
68141;BME280;54941;52.220;104.306;2023-03-16T03:13:08;97441.56;;;3.19;34.49
68141;BME280;54941;52.220;104.306;2023-03-16T03:15:35;97436.69;;;1.96;35.82
68141;BME280;54941;52.220;104.306;2023-03-16T03:18:01;97429.59;;;3.01;34.25
68141;BME280;54941;52.220;104.306;2023-03-16T03:20:28;97423.56;;;1.91;35.27
68141;BME280;54941;52.220;104.306;2023-03-16T03:22:56;97421.69;;;2.14;36.17
68141;BME280;54941;52.220;104.306;2023-03-16T03:25:22;97405.97;;;2.89;34.51
68141;BME280;54941;52.220;104.306;2023-03-16T03:27:49;97417.41;;;1.32;36.86
68141;BME280;54941;52.220;104.306;2023-03-16T03:30:18;97422.06;;;2.89;33.72
68141;BME280;54941;52.220;104.306;2023-03-16T03:32:45;97404.09;;;2.02;35.78
68141;BME280;54941;52.220;104.306;2023-03-16T03:35:12;97403.75;;;3.15;34.68
68141;BME280;54941;52.220;104.306;2023-03-16T03:37:39;97414.94;;;2.34;34.98
68141;BME280;54941;52.220;104.306;2023-03-16T03:40:09;97406.28;;;4.19;33.10
68141;BME280;54941;52.220;104.306;2023-03-16T03:42:36;97406.81;;;3.76;33.21
68141;BME280;54941;52.220;104.306;2023-03-16T03:45:03;97413.84;;;2.67;34.66
68141;BME280;54941;52.220;104.306;2023-03-16T03:47:30;97399.56;;;2.35;34.69
68141;BME280;54941;52.220;104.306;2023-03-16T03:49:57;97396.00;;;3.35;33.31
68141;BME280;54941;52.220;104.306;2023-03-16T03:52:23;97400.28;;;2.57;34.63
68141;BME280;54941;52.220;104.306;2023-03-16T03:54:52;97406.81;;;2.10;35.21
68141;BME280;54941;52.220;104.306;2023-03-16T03:57:20;97398.84;;;2.33;35.24
68141;BME280;54941;52.220;104.306;2023-03-16T03:59:47;97393.41;;;2.87;33.45
68141;BME280;54941;52.220;104.306;2023-03-16T04:02:13;97382.53;;;3.62;32.89
68141;BME280;54941;52.220;104.306;2023-03-16T04:04:41;97382.66;;;4.54;31.62
68141;BME280;54941;52.220;104.306;2023-03-16T04:07:08;97382.91;;;3.86;32.39
68141;BME280;54941;52.220;104.306;2023-03-16T04:09:35;97375.78;;;4.27;32.52
68141;BME280;54941;52.220;104.306;2023-03-16T04:12:02;97369.69;;;3.16;32.97
68141;BME280;54941;52.220;104.306;2023-03-16T04:14:31;97371.81;;;3.59;33.49
68141;BME280;54941;52.220;104.306;2023-03-16T04:16:58;97366.50;;;4.35;32.22
68141;BME280;54941;52.220;104.306;2023-03-16T04:19:25;97376.25;;;4.40;32.23
68141;BME280;54941;52.220;104.306;2023-03-16T04:21:51;97369.53;;;3.56;33.54
68141;BME280;54941;52.220;104.306;2023-03-16T04:24:18;97372.63;;;3.40;33.17
68141;BME280;54941;52.220;104.306;2023-03-16T04:26:44;97373.00;;;4.75;31.62
68141;BME280;54941;52.220;104.306;2023-03-16T04:29:11;97376.38;;;4.11;32.27
68141;BME280;54941;52.220;104.306;2023-03-16T04:31:39;97377.31;;;3.64;33.90
68141;BME280;54941;52.220;104.306;2023-03-16T04:34:06;97377.84;;;3.67;32.57
68141;BME280;54941;52.220;104.306;2023-03-16T04:36:33;97363.31;;;4.24;32.60
68141;BME280;54941;52.220;104.306;2023-03-16T04:38:59;97364.13;;;4.52;31.61
68141;BME280;54941;52.220;104.306;2023-03-16T04:41:26;97353.13;;;4.14;32.32
68141;BME280;54941;52.220;104.306;2023-03-16T04:43:52;97364.47;;;3.27;33.72
68141;BME280;54941;52.220;104.306;2023-03-16T04:46:18;97373.56;;;3.01;34.61
68141;BME280;54941;52.220;104.306;2023-03-16T04:48:46;97362.16;;;2.85;35.04
68141;BME280;54941;52.220;104.306;2023-03-16T04:51:13;97371.44;;;4.00;33.02
68141;BME280;54941;52.220;104.306;2023-03-16T04:53:39;97363.63;;;3.65;33.96
68141;BME280;54941;52.220;104.306;2023-03-16T04:56:06;97365.28;;;4.03;33.67
68141;BME280;54941;52.220;104.306;2023-03-16T04:58:32;97357.84;;;3.72;33.78
68141;BME280;54941;52.220;104.306;2023-03-16T05:00:59;97358.53;;;3.55;32.88
68141;BME280;54941;52.220;104.306;2023-03-16T05:03:25;97348.94;;;4.23;33.54
68141;BME280;54941;52.220;104.306;2023-03-16T05:05:53;97358.44;;;3.18;33.87
68141;BME280;54941;52.220;104.306;2023-03-16T05:08:20;97359.88;;;2.73;35.00
68141;BME280;54941;52.220;104.306;2023-03-16T05:10:46;97358.44;;;3.28;33.43
68141;BME280;54941;52.220;104.306;2023-03-16T05:13:12;97344.88;;;4.30;31.24
68141;BME280;54941;52.220;104.306;2023-03-16T05:15:42;97343.66;;;3.41;32.66
68141;BME280;54941;52.220;104.306;2023-03-16T05:18:08;97354.28;;;3.17;33.70
68141;BME280;54941;52.220;104.306;2023-03-16T05:20:34;97352.91;;;3.61;33.99
68141;BME280;54941;52.220;104.306;2023-03-16T05:23:02;97341.22;;;3.68;31.87
68141;BME280;54941;52.220;104.306;2023-03-16T05:25:28;97346.38;;;3.30;33.28
68141;BME280;54941;52.220;104.306;2023-03-16T05:27:56;97349.06;;;3.84;33.57
68141;BME280;54941;52.220;104.306;2023-03-16T05:30:22;97331.34;;;3.46;33.14
68141;BME280;54941;52.220;104.306;2023-03-16T05:32:49;97341.44;;;3.09;33.86
68141;BME280;54941;52.220;104.306;2023-03-16T05:35:16;97342.75;;;3.13;33.60
68141;BME280;54941;52.220;104.306;2023-03-16T05:37:43;97332.41;;;3.34;33.24
68141;BME280;54941;52.220;104.306;2023-03-16T05:42:41;97327.88;;;3.09;33.83
68141;BME280;54941;52.220;104.306;2023-03-16T05:45:08;97319.44;;;2.89;34.09
68141;BME280;54941;52.220;104.306;2023-03-16T05:47:35;97311.00;;;3.17;33.68
68141;BME280;54941;52.220;104.306;2023-03-16T05:50:01;97324.19;;;3.69;32.66
68141;BME280;54941;52.220;104.306;2023-03-16T05:52:28;97314.22;;;3.10;33.57
68141;BME280;54941;52.220;104.306;2023-03-16T05:54:54;97315.94;;;3.19;32.82
68141;BME280;54941;52.220;104.306;2023-03-16T05:57:22;97316.25;;;3.72;32.41
68141;BME280;54941;52.220;104.306;2023-03-16T05:59:49;97310.78;;;3.57;33.29
68141;BME280;54941;52.220;104.306;2023-03-16T06:02:15;97310.72;;;3.11;34.17
68141;BME280;54941;52.220;104.306;2023-03-16T06:04:41;97304.16;;;2.99;34.08
68141;BME280;54941;52.220;104.306;2023-03-16T06:07:08;97301.63;;;2.99;33.65
68141;BME280;54941;52.220;104.306;2023-03-16T06:09:34;97306.09;;;2.37;34.78
68141;BME280;54941;52.220;104.306;2023-03-16T06:12:01;97315.34;;;2.48;33.81
68141;BME280;54941;52.220;104.306;2023-03-16T06:14:29;97297.13;;;2.24;34.90
68141;BME280;54941;52.220;104.306;2023-03-16T06:16:55;97294.44;;;2.25;35.51
68141;BME280;54941;52.220;104.306;2023-03-16T06:19:22;97276.31;;;2.59;35.27
68141;BME280;54941;52.220;104.306;2023-03-16T06:21:48;97272.72;;;1.72;35.76
68141;BME280;54941;52.220;104.306;2023-03-16T06:24:15;97269.19;;;1.93;36.03
68141;BME280;54941;52.220;104.306;2023-03-16T06:26:41;97278.31;;;1.66;36.37
68141;BME280;54941;52.220;104.306;2023-03-16T06:29:07;97273.47;;;1.63;35.69
68141;BME280;54941;52.220;104.306;2023-03-16T06:31:35;97265.91;;;1.72;35.98
68141;BME280;54941;52.220;104.306;2023-03-16T06:34:02;97268.19;;;1.75;35.84
68141;BME280;54941;52.220;104.306;2023-03-16T06:36:28;97275.44;;;1.80;35.47
68141;BME280;54941;52.220;104.306;2023-03-16T06:38:54;97267.78;;;2.10;36.02
68141;BME280;54941;52.220;104.306;2023-03-16T06:41:21;97263.38;;;1.72;36.64
68141;BME280;54941;52.220;104.306;2023-03-16T06:43:47;97249.19;;;1.70;36.33
68141;BME280;54941;52.220;104.306;2023-03-16T06:46:14;97262.53;;;1.62;35.67
68141;BME280;54941;52.220;104.306;2023-03-16T06:48:42;97258.28;;;1.42;36.44
68141;BME280;54941;52.220;104.306;2023-03-16T06:51:08;97262.59;;;1.81;35.38
68141;BME280;54941;52.220;104.306;2023-03-16T06:53:34;97271.66;;;1.44;36.12
68141;BME280;54941;52.220;104.306;2023-03-16T06:56:01;97265.25;;;1.80;34.76
68141;BME280;54941;52.220;104.306;2023-03-16T06:58:27;97253.19;;;1.72;35.52
68141;BME280;54941;52.220;104.306;2023-03-16T07:00:54;97257.34;;;1.73;35.03
68141;BME280;54941;52.220;104.306;2023-03-16T07:03:20;97255.28;;;1.58;34.64
68141;BME280;54941;52.220;104.306;2023-03-16T07:05:48;97245.66;;;1.61;35.53
68141;BME280;54941;52.220;104.306;2023-03-16T07:08:14;97247.56;;;1.38;34.80
68141;BME280;54941;52.220;104.306;2023-03-16T07:10:41;97244.50;;;1.75;35.84
68141;BME280;54941;52.220;104.306;2023-03-16T07:13:07;97249.59;;;1.75;35.38
68141;BME280;54941;52.220;104.306;2023-03-16T07:15:34;97261.75;;;1.71;34.80
68141;BME280;54941;52.220;104.306;2023-03-16T07:18:00;97250.41;;;1.75;35.35
68141;BME280;54941;52.220;104.306;2023-03-16T07:20:26;97256.56;;;1.73;36.06
68141;BME280;54941;52.220;104.306;2023-03-16T07:22:54;97253.84;;;1.65;35.72
68141;BME280;54941;52.220;104.306;2023-03-16T07:25:21;97255.69;;;1.63;34.87
68141;BME280;54941;52.220;104.306;2023-03-16T07:27:47;97256.00;;;1.69;34.74
68141;BME280;54941;52.220;104.306;2023-03-16T07:30:14;97245.22;;;1.86;34.99
68141;BME280;54941;52.220;104.306;2023-03-16T07:32:40;97243.06;;;1.52;34.74
68141;BME280;54941;52.220;104.306;2023-03-16T07:35:08;97222.19;;;1.48;34.05
68141;BME280;54941;52.220;104.306;2023-03-16T07:37:34;97244.00;;;1.20;33.35
68141;BME280;54941;52.220;104.306;2023-03-16T07:40:02;97237.59;;;1.46;33.92
68141;BME280;54941;52.220;104.306;2023-03-16T07:42:29;97240.38;;;1.43;33.71
68141;BME280;54941;52.220;104.306;2023-03-16T07:44:55;97243.22;;;1.50;33.23
68141;BME280;54941;52.220;104.306;2023-03-16T07:47:22;97239.84;;;1.40;32.08
68141;BME280;54941;52.220;104.306;2023-03-16T07:49:48;97235.84;;;1.47;32.56
68141;BME280;54941;52.220;104.306;2023-03-16T07:52:15;97234.66;;;1.51;32.88
68141;BME280;54941;52.220;104.306;2023-03-16T07:54:41;97236.41;;;1.51;32.44
68141;BME280;54941;52.220;104.306;2023-03-16T07:57:10;97236.69;;;1.57;31.57
68141;BME280;54941;52.220;104.306;2023-03-16T07:59:36;97234.59;;;1.62;31.94
68141;BME280;54941;52.220;104.306;2023-03-16T08:02:08;97230.31;;;1.32;31.47
68141;BME280;54941;52.220;104.306;2023-03-16T08:04:36;97241.97;;;1.44;31.69
68141;BME280;54941;52.220;104.306;2023-03-16T08:07:02;97236.88;;;1.44;31.68
68141;BME280;54941;52.220;104.306;2023-03-16T08:09:28;97228.16;;;1.37;31.41
68141;BME280;54941;52.220;104.306;2023-03-16T08:11:57;97232.44;;;1.37;32.16
68141;BME280;54941;52.220;104.306;2023-03-16T08:14:25;97229.91;;;1.37;31.93
68141;BME280;54941;52.220;104.306;2023-03-16T08:16:51;97221.00;;;1.42;30.82
68141;BME280;54941;52.220;104.306;2023-03-16T08:19:18;97226.06;;;1.42;30.43
68141;BME280;54941;52.220;104.306;2023-03-16T08:21:44;97218.28;;;1.34;30.56
68141;BME280;54941;52.220;104.306;2023-03-16T08:24:13;97228.50;;;1.23;30.46
68141;BME280;54941;52.220;104.306;2023-03-16T08:26:39;97211.25;;;1.17;30.51
68141;BME280;54941;52.220;104.306;2023-03-16T08:29:06;97221.78;;;1.13;30.26
68141;BME280;54941;52.220;104.306;2023-03-16T08:31:34;97220.97;;;1.33;31.77
68141;BME280;54941;52.220;104.306;2023-03-16T08:34:00;97226.03;;;1.33;30.16
68141;BME280;54941;52.220;104.306;2023-03-16T08:36:27;97212.13;;;1.37;30.83
68141;BME280;54941;52.220;104.306;2023-03-16T08:38:54;97206.09;;;1.28;31.03
68141;BME280;54941;52.220;104.306;2023-03-16T08:41:21;97207.81;;;1.28;31.45
68141;BME280;54941;52.220;104.306;2023-03-16T08:43:48;97199.69;;;1.34;30.56
68141;BME280;54941;52.220;104.306;2023-03-16T08:46:14;97205.38;;;1.17;30.82
68141;BME280;54941;52.220;104.306;2023-03-16T08:48:44;97188.94;;;1.21;30.75
68141;BME280;54941;52.220;104.306;2023-03-16T08:51:11;97198.97;;;1.22;31.42
68141;BME280;54941;52.220;104.306;2023-03-16T08:53:37;97203.66;;;1.27;31.49
68141;BME280;54941;52.220;104.306;2023-03-16T08:56:05;97196.97;;;1.26;31.84
68141;BME280;54941;52.220;104.306;2023-03-16T08:58:32;97192.28;;;1.21;31.02
68141;BME280;54941;52.220;104.306;2023-03-16T09:00:58;97194.88;;;1.31;32.17
68141;BME280;54941;52.220;104.306;2023-03-16T09:03:25;97192.22;;;1.12;31.36
68141;BME280;54941;52.220;104.306;2023-03-16T09:05:59;97192.84;;;1.04;31.48
68141;BME280;54941;52.220;104.306;2023-03-16T09:08:25;97183.81;;;1.11;31.73
68141;BME280;54941;52.220;104.306;2023-03-16T09:10:58;97193.28;;;1.09;31.87
68141;BME280;54941;52.220;104.306;2023-03-16T09:13:25;97187.41;;;1.09;31.99
68141;BME280;54941;52.220;104.306;2023-03-16T09:15:51;97185.59;;;1.20;32.01
68141;BME280;54941;52.220;104.306;2023-03-16T09:18:25;97183.78;;;1.02;32.63
68141;BME280;54941;52.220;104.306;2023-03-16T09:20:56;97190.03;;;0.97;32.01
68141;BME280;54941;52.220;104.306;2023-03-16T09:23:24;97174.88;;;0.86;31.85
68141;BME280;54941;52.220;104.306;2023-03-16T09:25:50;97178.88;;;0.89;31.66
68141;BME280;54941;52.220;104.306;2023-03-16T09:28:17;97175.41;;;0.90;32.05
68141;BME280;54941;52.220;104.306;2023-03-16T09:30:43;97166.19;;;0.89;32.38
68141;BME280;54941;52.220;104.306;2023-03-16T09:33:10;97161.63;;;0.83;32.93
68141;BME280;54941;52.220;104.306;2023-03-16T09:35:36;97168.50;;;0.92;32.67
68141;BME280;54941;52.220;104.306;2023-03-16T09:38:04;97168.06;;;0.87;32.50
68141;BME280;54941;52.220;104.306;2023-03-16T09:40:30;97174.75;;;0.88;32.50
68141;BME280;54941;52.220;104.306;2023-03-16T09:43:09;97178.16;;;0.77;32.28
68141;BME280;54941;52.220;104.306;2023-03-16T09:45:43;97173.09;;;0.77;33.78
68141;BME280;54941;52.220;104.306;2023-03-16T09:48:14;97173.47;;;0.73;33.75
68141;BME280;54941;52.220;104.306;2023-03-16T09:50:42;97176.81;;;0.73;33.70
68141;BME280;54941;52.220;104.306;2023-03-16T09:53:16;97167.69;;;0.71;33.95
68141;BME280;54941;52.220;104.306;2023-03-16T09:55:45;97177.53;;;0.64;33.65
68141;BME280;54941;52.220;104.306;2023-03-16T09:58:16;97170.72;;;0.65;34.36
68141;BME280;54941;52.220;104.306;2023-03-16T10:00:44;97162.00;;;0.58;33.93
68141;BME280;54941;52.220;104.306;2023-03-16T10:03:19;97161.81;;;0.49;33.27
68141;BME280;54941;52.220;104.306;2023-03-16T10:05:56;97161.97;;;0.48;33.79
68141;BME280;54941;52.220;104.306;2023-03-16T10:08:31;97167.03;;;0.48;33.86
68141;BME280;54941;52.220;104.306;2023-03-16T10:11:14;97165.66;;;0.44;33.76
68141;BME280;54941;52.220;104.306;2023-03-16T10:13:46;97161.75;;;0.40;34.66
68141;BME280;54941;52.220;104.306;2023-03-16T10:16:16;97164.53;;;0.37;34.84
68141;BME280;54941;52.220;104.306;2023-03-16T10:18:46;97161.06;;;0.38;34.74
68141;BME280;54941;52.220;104.306;2023-03-16T10:21:15;97164.41;;;0.38;35.20
68141;BME280;54941;52.220;104.306;2023-03-16T10:23:45;97164.59;;;0.26;34.71
68141;BME280;54941;52.220;104.306;2023-03-16T10:26:13;97165.41;;;0.15;34.69
68141;BME280;54941;52.220;104.306;2023-03-16T10:28:41;97165.22;;;0.07;34.37
68141;BME280;54941;52.220;104.306;2023-03-16T10:31:09;97155.69;;;-0.01;35.44
68141;BME280;54941;52.220;104.306;2023-03-16T10:33:36;97153.63;;;-0.07;35.15
68141;BME280;54941;52.220;104.306;2023-03-16T10:36:09;97164.91;;;-0.11;35.96
68141;BME280;54941;52.220;104.306;2023-03-16T10:38:41;97158.84;;;-0.19;36.36
68141;BME280;54941;52.220;104.306;2023-03-16T10:41:20;97165.53;;;-0.29;36.67
68141;BME280;54941;52.220;104.306;2023-03-16T10:43:50;97160.84;;;-0.34;36.82
68141;BME280;54941;52.220;104.306;2023-03-16T10:46:17;97153.59;;;-0.50;36.63
68141;BME280;54941;52.220;104.306;2023-03-16T10:48:51;97156.38;;;-0.64;36.88
68141;BME280;54941;52.220;104.306;2023-03-16T10:51:21;97157.41;;;-0.77;37.53
68141;BME280;54941;52.220;104.306;2023-03-16T10:53:49;97155.44;;;-0.85;37.27
68141;BME280;54941;52.220;104.306;2023-03-16T10:56:21;97157.78;;;-0.93;37.77
68141;BME280;54941;52.220;104.306;2023-03-16T10:58:48;97156.13;;;-1.05;38.08
68141;BME280;54941;52.220;104.306;2023-03-16T11:01:17;97161.28;;;-1.18;38.01
68141;BME280;54941;52.220;104.306;2023-03-16T11:03:48;97150.81;;;-1.24;38.22
68141;BME280;54941;52.220;104.306;2023-03-16T11:06:20;97155.53;;;-1.31;37.98
68141;BME280;54941;52.220;104.306;2023-03-16T11:08:46;97162.63;;;-1.36;38.16
68141;BME280;54941;52.220;104.306;2023-03-16T11:11:16;97159.09;;;-1.33;38.68
68141;BME280;54941;52.220;104.306;2023-03-16T11:13:45;97163.19;;;-1.43;38.28
68141;BME280;54941;52.220;104.306;2023-03-16T11:16:23;97159.47;;;-1.62;39.80
68141;BME280;54941;52.220;104.306;2023-03-16T11:18:56;97158.50;;;-1.72;38.38
68141;BME280;54941;52.220;104.306;2023-03-16T11:21:37;97155.84;;;-1.81;38.71
68141;BME280;54941;52.220;104.306;2023-03-16T11:24:15;97161.50;;;-1.78;38.27
68141;BME280;54941;52.220;104.306;2023-03-16T11:26:44;97164.06;;;-1.90;38.35
68141;BME280;54941;52.220;104.306;2023-03-16T11:29:18;97172.09;;;-1.97;38.63
68141;BME280;54941;52.220;104.306;2023-03-16T11:31:49;97158.41;;;-2.18;39.36
68141;BME280;54941;52.220;104.306;2023-03-16T11:34:28;97165.22;;;-2.18;38.77
68141;BME280;54941;52.220;104.306;2023-03-16T11:36:56;97159.06;;;-2.27;39.70
68141;BME280;54941;52.220;104.306;2023-03-16T11:39:36;97162.56;;;-2.40;39.54
68141;BME280;54941;52.220;104.306;2023-03-16T11:42:22;97157.81;;;-2.45;38.53
68141;BME280;54941;52.220;104.306;2023-03-16T11:44:54;97169.13;;;-2.51;38.55
68141;BME280;54941;52.220;104.306;2023-03-16T11:47:38;97168.06;;;-2.72;39.46
68141;BME280;54941;52.220;104.306;2023-03-16T11:50:14;97176.75;;;-2.76;38.33
68141;BME280;54941;52.220;104.306;2023-03-16T11:52:49;97168.78;;;-2.82;38.18
68141;BME280;54941;52.220;104.306;2023-03-16T11:55:28;97173.44;;;-2.89;38.49
68141;BME280;54941;52.220;104.306;2023-03-16T11:58:05;97174.25;;;-3.01;38.53
68141;BME280;54941;52.220;104.306;2023-03-16T12:00:48;97173.03;;;-3.08;38.92
68141;BME280;54941;52.220;104.306;2023-03-16T12:03:33;97165.25;;;-3.18;39.41
68141;BME280;54941;52.220;104.306;2023-03-16T12:06:07;97173.53;;;-3.28;39.52
68141;BME280;54941;52.220;104.306;2023-03-16T12:11:37;97171.59;;;-3.50;39.79
68141;BME280;54941;52.220;104.306;2023-03-16T12:14:13;97170.16;;;-3.54;40.26
68141;BME280;54941;52.220;104.306;2023-03-16T12:16:47;97166.72;;;-3.66;40.50
68141;BME280;54941;52.220;104.306;2023-03-16T12:19:21;97173.03;;;-3.73;40.66
68141;BME280;54941;52.220;104.306;2023-03-16T12:21:58;97161.94;;;-3.83;40.29
68141;BME280;54941;52.220;104.306;2023-03-16T12:24:30;97164.25;;;-3.92;40.67
68141;BME280;54941;52.220;104.306;2023-03-16T12:27:00;97166.03;;;-3.95;40.75
68141;BME280;54941;52.220;104.306;2023-03-16T12:29:32;97163.38;;;-4.06;41.28
68141;BME280;54941;52.220;104.306;2023-03-16T12:32:08;97162.88;;;-4.11;41.21
68141;BME280;54941;52.220;104.306;2023-03-16T12:34:40;97159.91;;;-4.17;41.34
68141;BME280;54941;52.220;104.306;2023-03-16T12:37:21;97168.94;;;-4.27;41.91
68141;BME280;54941;52.220;104.306;2023-03-16T12:40:14;97169.50;;;-4.36;42.07
68141;BME280;54941;52.220;104.306;2023-03-16T12:42:57;97160.97;;;-4.34;43.42
68141;BME280;54941;52.220;104.306;2023-03-16T12:45:31;97171.41;;;-4.40;41.81
68141;BME280;54941;52.220;104.306;2023-03-16T12:48:10;97165.66;;;-4.42;42.46
68141;BME280;54941;52.220;104.306;2023-03-16T12:50:48;97166.66;;;-4.45;42.29
68141;BME280;54941;52.220;104.306;2023-03-16T12:53:25;97162.59;;;-4.47;42.97
68141;BME280;54941;52.220;104.306;2023-03-16T12:55:51;97161.47;;;-4.56;42.43
68141;BME280;54941;52.220;104.306;2023-03-16T12:58:18;97160.22;;;-4.63;42.71
68141;BME280;54941;52.220;104.306;2023-03-16T13:00:54;97168.91;;;-4.68;42.89